createdAt,value
2018-02-10T00:01:36.886Z,-0.70
2018-02-10T00:04:07.275Z,-0.70
2018-02-10T00:06:37.554Z,-0.70
2018-02-10T00:09:08.246Z,-0.70
2018-02-10T00:11:39.780Z,-0.70
2018-02-10T00:14:10.195Z,-0.70
2018-02-10T00:16:40.443Z,-0.60
2018-02-10T00:19:10.946Z,-0.70
2018-02-10T00:21:41.691Z,-0.70
2018-02-10T00:24:12.090Z,-0.60
2018-02-10T00:26:42.111Z,-0.60
2018-02-10T00:29:12.426Z,-0.60
2018-02-10T00:31:43.059Z,-0.70
2018-02-10T00:34:13.191Z,-0.60
2018-02-10T00:36:43.436Z,-0.70
2018-02-10T00:39:13.434Z,-0.70
2018-02-10T00:41:43.721Z,-0.70
2018-02-10T00:44:14.057Z,-0.70
2018-02-10T00:46:44.027Z,-0.70
2018-02-10T00:49:14.499Z,-0.70
2018-02-10T00:51:44.646Z,-0.70
2018-02-10T00:54:14.900Z,-0.70
2018-02-10T00:56:45.626Z,-0.70
2018-02-10T00:59:18.080Z,-0.70
2018-02-10T01:01:48.390Z,-0.70
2018-02-10T01:04:18.355Z,-0.70
2018-02-10T01:06:49.545Z,-0.70
2018-02-10T01:09:19.743Z,-0.70
2018-02-10T01:11:49.796Z,-0.70
2018-02-10T01:14:21.530Z,-0.90
2018-02-10T01:16:52.170Z,-0.90
2018-02-10T01:19:22.477Z,-0.90
2018-02-10T01:21:53.562Z,-0.80
2018-02-10T01:24:23.905Z,-0.80
2018-02-10T01:26:54.280Z,-0.90
2018-02-10T01:29:24.531Z,-0.90
2018-02-10T01:31:55.702Z,-0.90
2018-02-10T01:34:26.886Z,-1.00
2018-02-10T01:36:57.550Z,-1.00
2018-02-10T01:39:27.716Z,-1.00
2018-02-10T01:41:57.714Z,-1.10
2018-02-10T01:44:28.728Z,-1.10
2018-02-10T01:46:59.522Z,-1.20
2018-02-10T01:49:29.938Z,-1.10
2018-02-10T01:51:59.891Z,-1.10
2018-02-10T01:54:30.104Z,-1.10
2018-02-10T01:57:01.018Z,-1.00
2018-02-10T01:59:31.330Z,-1.10
2018-02-10T02:02:01.683Z,-1.10
2018-02-10T02:04:31.730Z,-1.10
2018-02-10T02:07:02.070Z,-1.10
2018-02-10T02:09:32.212Z,-1.10
2018-02-10T02:12:02.560Z,-1.10
2018-02-10T02:14:32.957Z,-1.20
2018-02-10T02:17:02.999Z,-1.20
2018-02-10T02:19:33.126Z,-1.20
2018-02-10T02:22:03.656Z,-1.20
2018-02-10T02:24:34.091Z,-1.20
2018-02-10T02:27:04.272Z,-1.20
2018-02-10T02:29:35.105Z,-1.10
2018-02-10T02:32:05.441Z,-1.20
2018-02-10T02:34:37.701Z,-1.10
2018-02-10T02:37:07.927Z,-1.10
2018-02-10T02:39:38.349Z,-1.10
2018-02-10T02:42:08.674Z,-1.00
2018-02-10T02:44:38.892Z,-1.00
2018-02-10T02:47:09.813Z,-1.00
2018-02-10T02:49:40.983Z,-1.00
2018-02-10T02:52:11.168Z,-1.00
2018-02-10T02:54:41.333Z,-0.90
2018-02-10T02:57:13.127Z,-0.90
2018-02-10T03:02:21.054Z,-0.90
2018-02-10T03:04:51.639Z,-0.80
2018-02-10T03:07:21.814Z,-0.80
2018-02-10T03:09:52.711Z,-0.80
2018-02-10T03:12:26.233Z,-0.80
2018-02-10T03:14:57.807Z,-0.80
2018-02-10T03:17:28.128Z,-0.80
2018-02-10T03:19:59.058Z,-0.80
2018-02-10T03:22:30.237Z,-0.80
2018-02-10T03:25:00.680Z,-0.90
2018-02-10T03:27:30.881Z,-0.90
2018-02-10T03:30:01.468Z,-0.90
2018-02-10T03:32:32.519Z,-0.80
2018-02-10T03:35:03.616Z,-0.80
2018-02-10T03:37:33.913Z,-0.80
2018-02-10T03:40:04.961Z,-0.80
2018-02-10T03:42:35.293Z,-0.80
2018-02-10T03:45:05.657Z,-0.80
2018-02-10T03:47:35.977Z,-0.80
2018-02-10T03:50:06.852Z,-0.80
2018-02-10T03:52:37.428Z,-0.80
2018-02-10T03:55:09.352Z,-0.70
2018-02-10T03:57:39.365Z,-0.70
2018-02-10T04:00:09.607Z,-0.60
2018-02-10T04:02:40.545Z,-0.60
2018-02-10T04:05:10.871Z,-0.60
2018-02-10T04:07:42.156Z,-0.70
2018-02-10T04:10:12.695Z,-0.70
2018-02-10T04:12:43.235Z,-0.60
2018-02-10T04:15:13.613Z,-0.60
2018-02-10T04:17:45.131Z,-0.50
2018-02-10T04:20:16.070Z,-0.50
2018-02-10T04:22:47.079Z,-0.50
2018-02-10T04:25:17.476Z,-0.50
2018-02-10T04:27:49.337Z,-0.50
2018-02-10T04:30:19.658Z,-0.50
2018-02-10T04:32:50.349Z,-0.40
2018-02-10T04:35:20.778Z,-0.40
2018-02-10T04:37:51.693Z,-0.50
2018-02-10T04:40:22.488Z,-0.50
2018-02-10T04:42:52.871Z,-0.50
2018-02-10T04:45:23.228Z,-0.50
2018-02-10T04:47:53.315Z,-0.50
2018-02-10T04:50:23.928Z,-0.40
2018-02-10T04:52:54.200Z,-0.40
2018-02-10T04:55:24.656Z,-0.40
2018-02-10T04:57:55.170Z,-0.50
2018-02-10T05:00:26.203Z,-0.40
2018-02-10T05:02:56.535Z,-0.50
2018-02-10T05:05:26.959Z,-0.40
2018-02-10T05:07:57.235Z,-0.40
2018-02-10T05:10:27.487Z,-0.40
2018-02-10T05:12:57.819Z,-0.30
2018-02-10T05:15:28.297Z,-0.30
2018-02-10T05:17:58.464Z,-0.30
2018-02-10T05:20:29.187Z,-0.30
2018-02-10T05:22:59.215Z,-0.30
2018-02-10T05:25:29.546Z,-0.20
2018-02-10T05:27:59.752Z,-0.20
2018-02-10T05:30:30.351Z,-0.30
2018-02-10T05:33:00.538Z,-0.40
2018-02-10T05:35:30.539Z,-0.40
2018-02-10T05:38:01.333Z,-0.30
2018-02-10T05:40:31.581Z,-0.40
2018-02-10T05:43:02.276Z,-0.30
2018-02-10T05:45:32.576Z,-0.30
2018-02-10T05:48:03.128Z,-0.30
2018-02-10T05:50:33.666Z,-0.20
2018-02-10T05:53:04.366Z,-0.20
2018-02-10T05:55:34.726Z,-0.20
2018-02-10T05:58:04.808Z,-0.20
2018-02-10T06:00:35.611Z,-0.10
2018-02-10T06:03:06.355Z,-0.10
2018-02-10T06:05:36.371Z,-0.10
2018-02-10T06:08:07.149Z,-0.10
2018-02-10T06:10:37.423Z,-0.10
2018-02-10T06:13:07.841Z,-0.10
2018-02-10T06:15:38.100Z,-0.10
2018-02-10T06:18:08.446Z,-0.10
2018-02-10T06:20:38.883Z,0.00
2018-02-10T06:23:09.252Z,0.00
2018-02-10T06:25:39.712Z,0.00
2018-02-10T06:28:11.099Z,0.00
2018-02-10T06:30:42.359Z,0.00
2018-02-10T06:33:12.663Z,-0.10
2018-02-10T06:35:47.191Z,-0.10
2018-02-10T06:38:37.009Z,-0.10
2018-02-10T06:41:13.593Z,-0.10
2018-02-10T06:43:48.663Z,0.00
2018-02-10T06:46:19.288Z,0.00
2018-02-10T06:48:49.735Z,0.00
2018-02-10T06:51:20.247Z,0.00
2018-02-10T06:53:51.527Z,0.00
2018-02-10T06:56:21.763Z,0.00
2018-02-10T06:58:52.902Z,-0.10
2018-02-10T07:01:23.636Z,-0.10
2018-02-10T07:03:54.139Z,-0.10
2018-02-10T07:06:24.565Z,-0.10
2018-02-10T07:08:55.842Z,-0.20
2018-02-10T07:11:27.732Z,-0.10
2018-02-10T07:13:58.845Z,-0.10
2018-02-10T07:16:29.965Z,-0.10
2018-02-10T07:19:00.260Z,-0.10
2018-02-10T07:21:30.287Z,-0.10
2018-02-10T07:24:01.122Z,-0.10
2018-02-10T07:26:31.174Z,-0.10
2018-02-10T07:29:01.337Z,-0.20
2018-02-10T07:31:32.552Z,-0.30
2018-02-10T07:34:03.799Z,-0.30
2018-02-10T07:36:34.288Z,-0.30
2018-02-10T07:39:04.492Z,-0.30
2018-02-10T07:41:35.621Z,-0.30
2018-02-10T07:44:05.646Z,-0.30
2018-02-10T07:46:35.923Z,-0.30
2018-02-10T07:49:05.950Z,-0.30
2018-02-10T07:51:36.774Z,-0.20
2018-02-10T07:54:07.868Z,-0.20
2018-02-10T07:56:38.470Z,-0.20
2018-02-10T07:59:08.964Z,-0.20
2018-02-10T08:01:39.100Z,-0.20
2018-02-10T08:04:10.275Z,-0.10
2018-02-10T08:06:40.759Z,-0.10
2018-02-10T08:09:10.870Z,-0.10
2018-02-10T08:11:41.324Z,0.00
2018-02-10T08:14:11.375Z,0.00
2018-02-10T08:16:41.410Z,0.00
2018-02-10T08:19:12.376Z,0.00
2018-02-10T08:21:42.479Z,0.00
2018-02-10T08:24:12.791Z,0.00
2018-02-10T08:26:42.970Z,0.10
2018-02-10T08:29:13.663Z,0.10
2018-02-10T08:31:43.976Z,0.10
2018-02-10T08:34:14.881Z,0.30
2018-02-10T08:36:45.172Z,0.20
2018-02-10T08:39:15.250Z,0.30
2018-02-10T08:41:45.693Z,0.40
2018-02-10T08:44:15.763Z,0.40
2018-02-10T08:51:22.688Z,0.40
2018-02-10T08:53:53.580Z,0.60
2018-02-10T08:56:24.524Z,0.60
2018-02-10T08:58:54.587Z,0.60
2018-02-10T09:01:25.026Z,0.70
2018-02-10T09:03:55.191Z,0.70
2018-02-10T09:06:25.546Z,0.70
2018-02-10T09:08:55.583Z,0.70
2018-02-10T09:11:26.111Z,0.70
2018-02-10T09:13:57.250Z,0.60
2018-02-10T09:16:27.307Z,0.70
2018-02-10T09:18:57.388Z,0.70
2018-02-10T09:21:29.658Z,0.80
2018-02-10T09:23:59.808Z,0.80
2018-02-10T09:26:30.699Z,0.80
2018-02-10T09:29:00.723Z,0.80
2018-02-10T09:31:31.228Z,0.70
2018-02-10T09:34:01.323Z,0.70
2018-02-10T09:36:31.663Z,0.70
2018-02-10T09:39:01.699Z,0.80
2018-02-10T09:41:31.800Z,0.80
2018-02-10T09:44:01.820Z,0.80
2018-02-10T09:46:31.869Z,0.70
2018-02-10T09:49:02.104Z,0.70
2018-02-10T09:51:32.167Z,0.80
2018-02-10T09:54:02.304Z,0.80
2018-02-10T09:56:32.403Z,0.80
2018-02-10T09:59:02.778Z,0.80
2018-02-10T10:01:32.914Z,0.90
2018-02-10T10:04:02.980Z,0.90
2018-02-10T10:06:33.007Z,1.00
2018-02-10T10:09:03.164Z,0.90
2018-02-10T10:11:33.731Z,0.90
2018-02-10T10:14:03.772Z,0.80
2018-02-10T10:16:34.071Z,0.90
2018-02-10T10:19:04.191Z,0.90
2018-02-10T10:21:34.349Z,1.00
2018-02-10T10:24:04.892Z,1.00
2018-02-10T10:26:34.968Z,1.10
2018-02-10T10:29:05.140Z,1.10
2018-02-10T10:31:35.353Z,1.10
2018-02-10T10:34:05.440Z,1.20
2018-02-10T10:36:35.587Z,1.20
2018-02-10T10:39:06.213Z,1.30
2018-02-10T10:41:36.328Z,1.30
2018-02-10T10:44:07.175Z,1.30
2018-02-10T10:46:38.115Z,1.40
2018-02-10T10:49:08.477Z,1.40
2018-02-10T10:51:38.522Z,1.40
2018-02-10T10:54:09.054Z,1.50
2018-02-10T10:56:39.260Z,1.50
2018-02-10T10:59:09.387Z,1.50
2018-02-10T11:01:39.696Z,1.50
2018-02-10T11:04:10.092Z,1.50
2018-02-10T11:06:40.711Z,1.50
2018-02-10T11:09:12.233Z,1.60
2018-02-10T11:11:42.435Z,1.60
2018-02-10T11:14:12.688Z,1.60
2018-02-10T11:16:42.752Z,1.60
2018-02-10T11:19:12.979Z,1.60
2018-02-10T11:21:43.099Z,1.60
2018-02-10T11:24:13.571Z,1.60
2018-02-10T11:26:43.677Z,1.60
2018-02-10T11:29:13.807Z,1.60
2018-02-10T11:31:43.954Z,1.60
2018-02-10T11:34:15.228Z,1.50
2018-02-10T11:36:45.279Z,1.50
2018-02-10T11:39:15.331Z,1.50
2018-02-10T11:41:45.373Z,1.50
2018-02-10T11:44:15.847Z,1.50
2018-02-10T11:46:45.940Z,1.70
2018-02-10T11:49:15.979Z,1.70
2018-02-10T11:51:46.190Z,1.60
2018-02-10T11:54:16.350Z,1.70
2018-02-10T11:56:46.391Z,1.70
2018-02-10T11:59:17.310Z,1.70
2018-02-10T12:01:54.919Z,1.60
2018-02-10T12:04:32.049Z,1.60
2018-02-10T12:08:37.999Z,1.60
2018-02-10T12:11:11.024Z,1.70
2018-02-10T12:13:46.157Z,1.70
2018-02-10T12:16:23.783Z,1.70
2018-02-10T12:19:00.192Z,1.70
2018-02-10T12:21:36.457Z,1.70
2018-02-10T12:24:13.127Z,1.70
2018-02-10T12:26:45.049Z,1.80
2018-02-10T12:29:15.397Z,1.80
2018-02-10T12:31:45.404Z,1.90
2018-02-10T12:34:16.457Z,1.90
2018-02-10T12:36:46.499Z,1.90
2018-02-10T12:39:16.577Z,1.90
2018-02-10T12:41:46.634Z,1.80
2018-02-10T12:44:17.316Z,1.90
2018-02-10T12:46:47.467Z,1.80
2018-02-10T12:49:23.387Z,1.80
2018-02-10T12:51:54.245Z,1.90
2018-02-10T12:54:24.915Z,1.80
2018-02-10T12:56:55.455Z,1.80
2018-02-10T12:59:25.673Z,1.80
2018-02-10T13:01:57.063Z,1.80
2018-02-10T13:04:27.126Z,1.80
2018-02-10T13:06:57.623Z,1.80
2018-02-10T13:09:27.749Z,1.80
2018-02-10T13:11:57.805Z,1.80
2018-02-10T13:14:27.936Z,1.80
2018-02-10T13:16:59.093Z,1.80
2018-02-10T13:19:30.005Z,1.80
2018-02-10T13:22:00.114Z,1.80
2018-02-10T13:24:30.250Z,1.90
2018-02-10T13:27:00.343Z,1.90
2018-02-10T13:29:30.559Z,1.90
2018-02-10T13:32:00.691Z,1.90
2018-02-10T13:34:30.836Z,1.90
2018-02-10T13:37:02.016Z,1.90
2018-02-10T13:39:32.450Z,1.90
2018-02-10T13:42:02.622Z,1.90
2018-02-10T13:44:34.863Z,1.90
2018-02-10T13:47:05.236Z,1.90
2018-02-10T13:49:35.442Z,1.90
2018-02-10T13:52:06.363Z,1.90
2018-02-10T13:54:36.497Z,1.90
2018-02-10T13:57:07.400Z,1.80
2018-02-10T13:59:37.532Z,1.80
2018-02-10T14:02:09.103Z,1.90
2018-02-10T14:04:39.221Z,1.90
2018-02-10T14:07:09.771Z,1.90
2018-02-10T14:09:40.011Z,1.90
2018-02-10T14:12:10.445Z,1.90
2018-02-10T14:14:41.317Z,1.90
2018-02-10T14:17:12.076Z,1.90
2018-02-10T14:21:12.044Z,1.90
2018-02-10T14:23:42.176Z,1.90
2018-02-10T14:26:12.512Z,1.90
2018-02-10T14:28:42.651Z,1.90
2018-02-10T14:31:12.923Z,2.00
2018-02-10T14:33:43.352Z,1.90
2018-02-10T14:36:13.394Z,1.90
2018-02-10T14:38:43.543Z,1.90
2018-02-10T14:41:14.451Z,2.00
2018-02-10T14:43:44.895Z,2.00
2018-02-10T14:46:15.947Z,1.90
2018-02-10T14:48:46.078Z,1.90
2018-02-10T14:51:17.007Z,1.90
2018-02-10T14:53:48.128Z,1.90
2018-02-10T14:56:18.194Z,1.90
2018-02-10T14:58:48.378Z,1.90
2018-02-10T15:01:18.401Z,1.80
2018-02-10T15:03:50.512Z,1.90
2018-02-10T15:06:20.832Z,1.80
2018-02-10T15:08:52.612Z,1.90
2018-02-10T15:11:22.881Z,1.80
2018-02-10T15:13:53.295Z,1.90
2018-02-10T15:23:08.114Z,1.90
2018-02-10T15:25:38.303Z,2.00
2018-02-10T15:28:08.682Z,2.00
2018-02-10T15:33:54.232Z,1.90
2018-02-10T15:36:24.737Z,2.00
2018-02-10T15:38:55.589Z,2.00
2018-02-10T15:41:25.665Z,1.90
2018-02-10T15:43:55.765Z,1.90
2018-02-10T15:46:25.867Z,1.90
2018-02-10T15:48:56.769Z,1.90
2018-02-10T15:51:27.147Z,1.90
2018-02-10T15:53:57.266Z,1.90
2018-02-10T15:56:27.309Z,1.90
2018-02-10T15:58:57.407Z,1.90
2018-02-10T16:01:27.549Z,1.80
2018-02-10T16:03:57.660Z,1.80
2018-02-10T16:06:27.711Z,1.80
2018-02-10T16:08:57.823Z,1.80
2018-02-10T16:11:28.029Z,1.80
2018-02-10T16:13:58.491Z,1.80
2018-02-10T16:16:29.392Z,1.90
2018-02-10T16:18:59.568Z,1.90
2018-02-10T16:21:30.417Z,1.90
2018-02-10T16:24:00.665Z,1.90
2018-02-10T16:26:30.882Z,1.90
2018-02-10T16:29:01.710Z,1.80
2018-02-10T16:31:31.832Z,1.80
2018-02-10T16:34:03.370Z,1.80
2018-02-10T16:36:34.100Z,1.80
2018-02-10T16:39:04.464Z,1.80
2018-02-10T16:41:34.892Z,1.80
2018-02-10T16:44:04.976Z,1.80
2018-02-10T16:46:35.056Z,1.90
2018-02-10T16:49:05.184Z,1.90
2018-02-10T16:51:36.168Z,1.90
2018-02-10T16:54:06.204Z,1.90
2018-02-10T16:56:36.345Z,1.90
2018-02-10T16:59:06.702Z,2.00
2018-02-10T17:01:36.972Z,1.90
2018-02-10T17:04:07.126Z,1.90
2018-02-10T17:06:38.056Z,1.90
2018-02-10T17:09:09.579Z,1.90
2018-02-10T17:11:39.868Z,1.90
2018-02-10T17:14:11.366Z,1.90
2018-02-10T17:16:43.758Z,1.90
2018-02-10T17:19:14.409Z,1.90
2018-02-10T17:21:45.233Z,2.00
2018-02-10T17:24:16.139Z,2.00
2018-02-10T17:26:46.373Z,1.90
2018-02-10T17:29:16.562Z,2.00
2018-02-10T17:31:46.647Z,2.00
2018-02-10T17:34:16.732Z,2.00
2018-02-10T17:36:46.836Z,2.00
2018-02-10T17:39:16.890Z,2.10
2018-02-10T17:41:48.063Z,2.00
2018-02-10T17:44:18.225Z,2.00
2018-02-10T17:46:48.325Z,2.00
2018-02-10T17:49:18.654Z,2.00
2018-02-10T17:54:13.504Z,2.00
2018-02-10T17:59:19.635Z,2.00
2018-02-10T18:01:49.967Z,2.10
2018-02-10T18:04:20.029Z,2.10
2018-02-10T18:06:51.414Z,2.10
2018-02-10T18:09:23.597Z,2.10
2018-02-10T18:11:54.827Z,2.10
2018-02-10T18:14:25.323Z,2.00
2018-02-10T18:16:55.367Z,2.00
2018-02-10T18:19:26.450Z,2.00
2018-02-10T18:21:57.756Z,2.10
2018-02-10T18:24:28.810Z,2.10
2018-02-10T18:26:59.630Z,2.10
2018-02-10T18:29:30.109Z,2.10
2018-02-10T18:32:01.018Z,2.10
2018-02-10T18:34:31.151Z,2.10
2018-02-10T18:37:01.163Z,2.10
2018-02-10T18:39:31.239Z,2.10
2018-02-10T18:42:01.280Z,2.10
2018-02-10T18:44:31.639Z,2.10
2018-02-10T18:47:02.467Z,2.20
2018-02-10T18:49:32.473Z,2.10
2018-02-10T18:52:02.511Z,2.20
2018-02-10T18:54:33.506Z,2.20
2018-02-10T18:57:04.108Z,2.20
2018-02-10T18:59:34.737Z,2.20
2018-02-10T19:02:04.828Z,2.20
2018-02-10T19:04:34.930Z,2.20
2018-02-10T19:17:50.895Z,2.20
2018-02-10T19:20:20.926Z,2.30
2018-02-10T19:22:52.063Z,2.30
2018-02-10T19:25:22.911Z,2.30
2018-02-10T19:27:53.882Z,2.30
2018-02-10T19:30:23.974Z,2.30
2018-02-10T19:32:54.890Z,2.40
2018-02-10T19:35:25.731Z,2.40
2018-02-10T19:37:56.579Z,2.50
2018-02-10T19:41:56.707Z,2.50
2018-02-10T19:44:26.904Z,2.40
2018-02-10T19:46:57.254Z,2.50
2018-02-10T19:49:27.278Z,2.50
2018-02-10T19:51:57.349Z,2.60
2018-02-10T19:54:43.396Z,2.60
2018-02-10T19:57:14.291Z,2.60
2018-02-10T19:59:44.312Z,2.60
2018-02-10T20:02:15.231Z,2.60
2018-02-10T20:04:45.350Z,2.60
2018-02-10T20:07:15.788Z,2.60
2018-02-10T20:09:45.840Z,2.70
2018-02-10T20:12:16.843Z,2.70
2018-02-10T20:14:48.409Z,2.70
2018-02-10T20:17:19.368Z,2.70
2018-02-10T20:19:49.656Z,2.70
2018-02-10T20:22:20.221Z,2.70
2018-02-10T20:24:50.295Z,2.70
2018-02-10T20:27:21.444Z,2.70
2018-02-10T20:29:51.498Z,2.60
2018-02-10T20:32:21.579Z,2.60
2018-02-10T20:34:51.928Z,2.70
2018-02-10T20:37:22.885Z,2.60
2018-02-10T20:39:53.008Z,2.60
2018-02-10T20:42:23.020Z,2.60
2018-02-10T20:44:53.070Z,2.60
2018-02-10T20:47:23.161Z,2.60
2018-02-10T20:49:53.495Z,2.50
2018-02-10T20:52:23.666Z,2.40
2018-02-10T20:54:53.758Z,2.50
2018-02-10T20:57:24.178Z,2.50
2018-02-10T20:59:55.411Z,2.40
2018-02-10T21:02:25.820Z,2.40
2018-02-10T21:04:57.258Z,2.30
2018-02-10T21:07:27.389Z,2.30
2018-02-10T21:09:57.948Z,2.30
2018-02-10T21:12:28.085Z,2.30
2018-02-10T21:14:58.152Z,2.30
2018-02-10T21:17:28.228Z,2.30
2018-02-10T21:19:58.547Z,2.30
2018-02-10T21:22:31.037Z,2.20
2018-02-10T21:25:01.690Z,2.20
2018-02-10T21:27:31.739Z,2.20
2018-02-10T21:30:01.811Z,2.20
2018-02-10T21:32:32.818Z,2.20
2018-02-10T21:35:02.888Z,2.20
2018-02-10T21:37:33.136Z,2.10
2018-02-10T21:40:05.046Z,2.10
2018-02-10T21:42:36.094Z,2.10
2018-02-10T21:45:06.940Z,2.10
2018-02-10T21:47:37.846Z,2.10
2018-02-10T21:50:09.322Z,2.10
2018-02-10T21:52:39.394Z,2.10
2018-02-10T21:55:09.415Z,2.10
2018-02-10T21:57:39.507Z,2.10
2018-02-10T22:00:09.530Z,2.00
2018-02-10T22:02:39.531Z,2.00
2018-02-10T22:05:09.601Z,2.00
2018-02-10T22:07:39.817Z,2.00
2018-02-10T22:10:10.128Z,2.00
2018-02-10T22:12:40.668Z,2.00
2018-02-10T22:15:11.533Z,1.90
2018-02-10T22:17:42.784Z,1.90
2018-02-10T22:20:12.847Z,1.90
2018-02-10T22:22:43.576Z,1.90
2018-02-10T22:25:13.659Z,1.90
2018-02-10T22:27:43.804Z,1.90
2018-02-10T22:30:14.427Z,1.80
2018-02-10T22:32:44.877Z,1.80
2018-02-10T22:35:14.923Z,1.80
2018-02-10T22:37:46.047Z,1.70
2018-02-10T22:40:16.176Z,1.70
2018-02-10T22:42:46.247Z,1.70
2018-02-10T22:45:16.321Z,1.70
2018-02-10T22:47:47.312Z,1.70
2018-02-10T22:50:17.624Z,1.70
2018-02-10T22:52:49.190Z,1.70
2018-02-10T22:55:19.681Z,1.70
2018-02-10T22:57:50.818Z,1.70
2018-02-10T23:00:21.624Z,1.70
2018-02-10T23:02:52.355Z,1.70
2018-02-10T23:05:22.625Z,1.70
2018-02-10T23:07:53.691Z,1.70
2018-02-10T23:10:23.799Z,1.80
2018-02-10T23:12:54.204Z,1.80
2018-02-10T23:15:24.226Z,1.80
2018-02-10T23:17:54.851Z,1.80
2018-02-10T23:20:24.889Z,1.80
2018-02-10T23:22:55.318Z,1.80
2018-02-10T23:25:25.731Z,1.80
2018-02-10T23:27:55.720Z,1.80
2018-02-10T23:30:25.954Z,1.80
2018-02-10T23:32:56.951Z,1.90
2018-02-10T23:35:31.972Z,1.80
2018-02-10T23:38:02.023Z,1.80
2018-02-10T23:40:32.834Z,1.80
2018-02-10T23:43:02.951Z,1.80
2018-02-10T23:45:33.254Z,1.90
2018-02-10T23:48:03.268Z,1.90
2018-02-10T23:50:33.654Z,1.90
2018-02-10T23:53:04.408Z,1.90
2018-02-10T23:55:34.400Z,1.90
2018-02-10T23:58:05.155Z,1.90
